Gentilly, Louisiana
Current Conditions -  °F | °C
As of 12:53 PM on Monday 20 Oct 2014 (Local Time) from KNEW Reporting Station
Clear Clear  
Wind Chill: 76°   Ceiling: Unl
Heat Index: 76°   Visibility: 10mi
Dew Point: 57°   Wind: 10mph
Humidity: 52%   Direction: 20°NNE
Pressure: 30.05"   Gusts: NA
Location:  30.0105°N, 90.0635°W
Report Text: KNEW 201753Z 02009KT 10SM CLR 24/14 A3005 RMK AO2 SLP168 T02440139 10244 20194 58010
Loading
Personal Weather Stations






























Interactive Weather Map
Tropical Storm Tracking
New forecast layout! Learn more

10-Day Weather Forecast

Advertisements
Track Severe Weather on mobile